sensor_id;sensor_type;location;lat;lon;timestamp;pressure;altitude;pressure_sealevel;temperature;humidity
9335;BME280;4706;41.844;26.082;2023-08-06T00:01:50;99388.28;;;27.42;82.90
9335;BME280;4706;41.844;26.082;2023-08-06T00:04:15;99385.22;;;27.49;83.06
9335;BME280;4706;41.844;26.082;2023-08-06T00:06:41;99387.72;;;27.47;83.35
9335;BME280;4706;41.844;26.082;2023-08-06T00:09:07;99382.91;;;27.31;85.10
9335;BME280;4706;41.844;26.082;2023-08-06T00:11:33;99396.78;;;27.55;83.98
9335;BME280;4706;41.844;26.082;2023-08-06T00:13:59;99384.03;;;27.79;82.49
9335;BME280;4706;41.844;26.082;2023-08-06T00:16:24;99383.72;;;27.90;82.15
9335;BME280;4706;41.844;26.082;2023-08-06T00:18:49;99380.06;;;27.77;82.89
9335;BME280;4706;41.844;26.082;2023-08-06T00:21:15;99381.44;;;27.56;84.67
9335;BME280;4706;41.844;26.082;2023-08-06T00:23:41;99385.44;;;27.71;83.48
9335;BME280;4706;41.844;26.082;2023-08-06T00:26:06;99382.91;;;27.77;83.19
9335;BME280;4706;41.844;26.082;2023-08-06T00:28:32;99396.75;;;27.71;83.40
9335;BME280;4706;41.844;26.082;2023-08-06T00:30:57;99397.41;;;27.63;84.17
9335;BME280;4706;41.844;26.082;2023-08-06T00:33:23;99389.66;;;27.50;85.11
9335;BME280;4706;41.844;26.082;2023-08-06T00:35:49;99383.31;;;27.46;85.49
9335;BME280;4706;41.844;26.082;2023-08-06T00:38:15;99381.38;;;27.43;85.73
9335;BME280;4706;41.844;26.082;2023-08-06T00:40:41;99386.34;;;27.39;86.15
9335;BME280;4706;41.844;26.082;2023-08-06T00:43:06;99375.84;;;27.40;86.24
9335;BME280;4706;41.844;26.082;2023-08-06T00:45:35;99377.00;;;27.42;86.45
9335;BME280;4706;41.844;26.082;2023-08-06T00:48:01;99375.44;;;27.08;88.81
9335;BME280;4706;41.844;26.082;2023-08-06T00:50:27;99374.88;;;27.30;87.66
9335;BME280;4706;41.844;26.082;2023-08-06T00:52:53;99364.88;;;27.13;88.98
9335;BME280;4706;41.844;26.082;2023-08-06T00:55:19;99358.34;;;27.16;89.05
9335;BME280;4706;41.844;26.082;2023-08-06T00:57:45;99370.31;;;27.20;88.93
9335;BME280;4706;41.844;26.082;2023-08-06T01:00:11;99369.50;;;27.35;87.69
9335;BME280;4706;41.844;26.082;2023-08-06T01:02:37;99377.00;;;27.42;86.94
9335;BME280;4706;41.844;26.082;2023-08-06T01:05:03;99372.38;;;27.48;86.61
9335;BME280;4706;41.844;26.082;2023-08-06T01:07:53;99362.31;;;27.47;86.37
9335;BME280;4706;41.844;26.082;2023-08-06T01:13:32;99357.59;;;27.28;88.08
9335;BME280;4706;41.844;26.082;2023-08-06T01:15:58;99350.25;;;27.30;88.47
9335;BME280;4706;41.844;26.082;2023-08-06T01:18:26;99349.38;;;27.33;87.80
9335;BME280;4706;41.844;26.082;2023-08-06T01:20:51;99347.59;;;27.40;86.61
9335;BME280;4706;41.844;26.082;2023-08-06T01:23:18;99334.06;;;27.47;85.55
9335;BME280;4706;41.844;26.082;2023-08-06T01:25:51;99327.34;;;27.28;86.23
9335;BME280;4706;41.844;26.082;2023-08-06T01:28:26;99336.13;;;27.30;86.08
9335;BME280;4706;41.844;26.082;2023-08-06T01:30:55;99338.53;;;27.32;85.92
9335;BME280;4706;41.844;26.082;2023-08-06T01:33:25;99337.75;;;27.15;86.79
9335;BME280;4706;41.844;26.082;2023-08-06T01:35:53;99343.69;;;27.04;87.49
9335;BME280;4706;41.844;26.082;2023-08-06T01:38:20;99334.13;;;27.31;86.06
9335;BME280;4706;41.844;26.082;2023-08-06T01:40:46;99327.56;;;27.34;85.87
9335;BME280;4706;41.844;26.082;2023-08-06T01:43:12;99319.59;;;27.00;87.21
9335;BME280;4706;41.844;26.082;2023-08-06T01:45:37;99313.75;;;27.07;87.15
9335;BME280;4706;41.844;26.082;2023-08-06T01:48:03;99307.41;;;27.19;86.03
9335;BME280;4706;41.844;26.082;2023-08-06T01:50:28;99306.69;;;27.31;84.95
9335;BME280;4706;41.844;26.082;2023-08-06T01:52:54;99309.41;;;27.35;84.81
9335;BME280;4706;41.844;26.082;2023-08-06T01:55:20;99305.81;;;27.34;84.50
9335;BME280;4706;41.844;26.082;2023-08-06T01:57:45;99312.44;;;27.28;84.75
9335;BME280;4706;41.844;26.082;2023-08-06T02:00:11;99310.06;;;27.10;85.71
9335;BME280;4706;41.844;26.082;2023-08-06T02:02:37;99301.22;;;27.08;86.11
9335;BME280;4706;41.844;26.082;2023-08-06T02:05:02;99305.88;;;26.85;87.29
9335;BME280;4706;41.844;26.082;2023-08-06T02:07:28;99304.38;;;26.64;88.79
9335;BME280;4706;41.844;26.082;2023-08-06T02:09:53;99303.91;;;26.99;86.79
9335;BME280;4706;41.844;26.082;2023-08-06T02:12:19;99301.19;;;26.95;86.99
9335;BME280;4706;41.844;26.082;2023-08-06T02:14:44;99299.16;;;26.96;86.90
9335;BME280;4706;41.844;26.082;2023-08-06T02:17:10;99305.66;;;26.93;87.40
9335;BME280;4706;41.844;26.082;2023-08-06T02:19:35;99299.94;;;26.96;86.72
9335;BME280;4706;41.844;26.082;2023-08-06T02:22:00;99307.44;;;27.03;87.08
9335;BME280;4706;41.844;26.082;2023-08-06T02:24:27;99300.19;;;27.02;87.17
9335;BME280;4706;41.844;26.082;2023-08-06T02:26:52;99293.50;;;26.96;87.63
9335;BME280;4706;41.844;26.082;2023-08-06T02:29:20;99286.22;;;26.82;88.37
9335;BME280;4706;41.844;26.082;2023-08-06T02:31:46;99287.63;;;26.90;87.53
9335;BME280;4706;41.844;26.082;2023-08-06T02:34:11;99268.28;;;26.88;87.47
9335;BME280;4706;41.844;26.082;2023-08-06T02:36:37;99270.69;;;26.74;88.19
9335;BME280;4706;41.844;26.082;2023-08-06T02:39:02;99270.91;;;26.50;90.64
9335;BME280;4706;41.844;26.082;2023-08-06T02:41:28;99280.75;;;26.58;90.56
9335;BME280;4706;41.844;26.082;2023-08-06T02:43:53;99274.75;;;26.73;89.35
9335;BME280;4706;41.844;26.082;2023-08-06T02:46:19;99279.53;;;26.76;88.73
9335;BME280;4706;41.844;26.082;2023-08-06T02:48:44;99270.88;;;26.67;88.92
9335;BME280;4706;41.844;26.082;2023-08-06T02:51:10;99284.00;;;26.73;88.52
9335;BME280;4706;41.844;26.082;2023-08-06T02:53:35;99288.69;;;26.80;87.93
9335;BME280;4706;41.844;26.082;2023-08-06T02:56:01;99275.22;;;26.71;88.07
9335;BME280;4706;41.844;26.082;2023-08-06T02:58:26;99280.22;;;26.80;87.49
9335;BME280;4706;41.844;26.082;2023-08-06T03:00:59;99285.88;;;26.80;87.42
9335;BME280;4706;41.844;26.082;2023-08-06T03:03:25;99289.47;;;26.80;87.69
9335;BME280;4706;41.844;26.082;2023-08-06T03:05:53;99293.63;;;26.76;87.76
9335;BME280;4706;41.844;26.082;2023-08-06T03:08:19;99294.44;;;26.60;88.98
9335;BME280;4706;41.844;26.082;2023-08-06T03:10:48;99292.31;;;26.48;89.60
9335;BME280;4706;41.844;26.082;2023-08-06T03:13:14;99292.91;;;26.39;91.00
9335;BME280;4706;41.844;26.082;2023-08-06T03:15:39;99286.22;;;26.33;91.55
9335;BME280;4706;41.844;26.082;2023-08-06T03:18:05;99292.03;;;26.26;91.98
9335;BME280;4706;41.844;26.082;2023-08-06T03:20:32;99291.22;;;26.25;92.54
9335;BME280;4706;41.844;26.082;2023-08-06T03:22:57;99291.47;;;26.14;93.23
9335;BME280;4706;41.844;26.082;2023-08-06T03:25:23;99291.31;;;26.22;93.44
9335;BME280;4706;41.844;26.082;2023-08-06T03:27:48;99286.19;;;26.16;93.88
9335;BME280;4706;41.844;26.082;2023-08-06T03:30:14;99295.78;;;26.19;93.66
9335;BME280;4706;41.844;26.082;2023-08-06T03:32:39;99288.84;;;26.24;93.45
9335;BME280;4706;41.844;26.082;2023-08-06T03:35:05;99294.63;;;26.16;94.00
9335;BME280;4706;41.844;26.082;2023-08-06T03:37:31;99295.88;;;26.15;94.09
9335;BME280;4706;41.844;26.082;2023-08-06T03:39:56;99291.75;;;26.20;93.91
9335;BME280;4706;41.844;26.082;2023-08-06T03:42:22;99289.53;;;26.11;94.89
9335;BME280;4706;41.844;26.082;2023-08-06T03:44:47;99296.28;;;25.98;96.32
9335;BME280;4706;41.844;26.082;2023-08-06T03:47:13;99292.50;;;26.04;95.56
9335;BME280;4706;41.844;26.082;2023-08-06T03:49:39;99286.00;;;26.07;95.76
9335;BME280;4706;41.844;26.082;2023-08-06T03:52:05;99277.03;;;26.12;95.41
9335;BME280;4706;41.844;26.082;2023-08-06T03:54:31;99267.00;;;26.11;95.18
9335;BME280;4706;41.844;26.082;2023-08-06T03:56:56;99269.19;;;26.04;96.38
9335;BME280;4706;41.844;26.082;2023-08-06T03:59:22;99265.91;;;26.05;96.27
9335;BME280;4706;41.844;26.082;2023-08-06T04:01:47;99260.81;;;26.16;94.96
9335;BME280;4706;41.844;26.082;2023-08-06T04:04:12;99263.00;;;26.09;95.12
9335;BME280;4706;41.844;26.082;2023-08-06T04:06:38;99260.13;;;26.12;94.98
9335;BME280;4706;41.844;26.082;2023-08-06T04:09:03;99254.31;;;26.03;95.86
9335;BME280;4706;41.844;26.082;2023-08-06T04:11:29;99264.25;;;25.91;96.92
9335;BME280;4706;41.844;26.082;2023-08-06T04:13:54;99274.03;;;26.20;94.92
9335;BME280;4706;41.844;26.082;2023-08-06T04:16:21;99281.09;;;26.28;94.50
9335;BME280;4706;41.844;26.082;2023-08-06T04:18:46;99288.34;;;26.45;92.71
9335;BME280;4706;41.844;26.082;2023-08-06T04:21:12;99284.31;;;26.46;92.73
9335;BME280;4706;41.844;26.082;2023-08-06T04:23:38;99293.38;;;26.54;92.52
9335;BME280;4706;41.844;26.082;2023-08-06T04:26:03;99292.91;;;26.55;92.53
9335;BME280;4706;41.844;26.082;2023-08-06T04:28:30;99284.91;;;26.54;92.53
9335;BME280;4706;41.844;26.082;2023-08-06T04:30:55;99285.63;;;26.58;91.66
9335;BME280;4706;41.844;26.082;2023-08-06T04:33:21;99287.53;;;26.45;92.73
9335;BME280;4706;41.844;26.082;2023-08-06T04:35:46;99286.94;;;26.37;93.38
9335;BME280;4706;41.844;26.082;2023-08-06T04:38:12;99281.28;;;26.37;92.90
9335;BME280;4706;41.844;26.082;2023-08-06T04:40:37;99289.81;;;26.33;92.77
9335;BME280;4706;41.844;26.082;2023-08-06T04:43:02;99287.88;;;26.30;94.04
9335;BME280;4706;41.844;26.082;2023-08-06T04:45:28;99277.03;;;26.29;93.54
9335;BME280;4706;41.844;26.082;2023-08-06T04:47:54;99285.69;;;26.22;94.35
9335;BME280;4706;41.844;26.082;2023-08-06T04:50:20;99276.94;;;26.32;93.50
9335;BME280;4706;41.844;26.082;2023-08-06T04:52:45;99284.06;;;26.21;94.43
9335;BME280;4706;41.844;26.082;2023-08-06T04:55:11;99275.94;;;26.06;94.65
9335;BME280;4706;41.844;26.082;2023-08-06T04:57:36;99278.00;;;26.22;93.39
9335;BME280;4706;41.844;26.082;2023-08-06T05:00:03;99267.13;;;25.88;96.00
9335;BME280;4706;41.844;26.082;2023-08-06T05:02:30;99272.41;;;25.86;97.39
9335;BME280;4706;41.844;26.082;2023-08-06T05:04:58;99265.75;;;26.12;95.11
9335;BME280;4706;41.844;26.082;2023-08-06T05:07:23;99264.00;;;26.19;95.08
9335;BME280;4706;41.844;26.082;2023-08-06T05:09:49;99263.31;;;26.31;94.21
9335;BME280;4706;41.844;26.082;2023-08-06T05:12:14;99275.00;;;26.13;95.82
9335;BME280;4706;41.844;26.082;2023-08-06T05:14:40;99282.56;;;26.00;98.01
9335;BME280;4706;41.844;26.082;2023-08-06T05:17:05;99288.13;;;26.03;97.14
9335;BME280;4706;41.844;26.082;2023-08-06T05:19:31;99291.91;;;26.13;96.53
9335;BME280;4706;41.844;26.082;2023-08-06T05:21:56;99297.91;;;26.31;95.38
9335;BME280;4706;41.844;26.082;2023-08-06T05:24:22;99295.63;;;26.43;94.22
9335;BME280;4706;41.844;26.082;2023-08-06T05:26:47;99296.59;;;26.36;95.30
9335;BME280;4706;41.844;26.082;2023-08-06T05:29:13;99292.59;;;26.53;93.91
9335;BME280;4706;41.844;26.082;2023-08-06T05:31:38;99293.91;;;26.49;94.44
9335;BME280;4706;41.844;26.082;2023-08-06T05:34:04;99300.44;;;26.46;94.79
9335;BME280;4706;41.844;26.082;2023-08-06T05:36:29;99301.56;;;26.64;92.85
9335;BME280;4706;41.844;26.082;2023-08-06T05:38:55;99315.66;;;26.81;92.39
9335;BME280;4706;41.844;26.082;2023-08-06T05:41:20;99317.78;;;26.93;90.84
9335;BME280;4706;41.844;26.082;2023-08-06T05:43:46;99305.69;;;26.76;92.65
9335;BME280;4706;41.844;26.082;2023-08-06T05:46:11;99304.97;;;26.88;92.23
9335;BME280;4706;41.844;26.082;2023-08-06T05:48:37;99285.59;;;26.91;91.53
9335;BME280;4706;41.844;26.082;2023-08-06T05:51:02;99278.22;;;27.09;90.20
9335;BME280;4706;41.844;26.082;2023-08-06T05:53:28;99275.34;;;27.13;90.10
9335;BME280;4706;41.844;26.082;2023-08-06T05:55:53;99281.03;;;27.26;89.26
9335;BME280;4706;41.844;26.082;2023-08-06T05:58:19;99276.66;;;27.38;87.92
9335;BME280;4706;41.844;26.082;2023-08-06T06:00:45;99281.22;;;27.60;86.34
9335;BME280;4706;41.844;26.082;2023-08-06T06:03:11;99282.69;;;27.52;86.14
9335;BME280;4706;41.844;26.082;2023-08-06T06:05:39;99273.31;;;27.55;85.39
9335;BME280;4706;41.844;26.082;2023-08-06T06:08:05;99258.97;;;27.63;85.78
9335;BME280;4706;41.844;26.082;2023-08-06T06:10:30;99250.03;;;27.51;85.91
9335;BME280;4706;41.844;26.082;2023-08-06T06:12:56;99236.03;;;27.60;85.00
9335;BME280;4706;41.844;26.082;2023-08-06T06:15:21;99238.75;;;27.51;85.84
9335;BME280;4706;41.844;26.082;2023-08-06T06:17:47;99225.88;;;27.63;85.12
9335;BME280;4706;41.844;26.082;2023-08-06T06:20:13;99236.09;;;27.86;84.24
9335;BME280;4706;41.844;26.082;2023-08-06T06:22:38;99231.00;;;28.19;82.64
9335;BME280;4706;41.844;26.082;2023-08-06T06:25:04;99232.00;;;28.51;79.70
9335;BME280;4706;41.844;26.082;2023-08-06T06:27:30;99233.22;;;28.63;78.91
9335;BME280;4706;41.844;26.082;2023-08-06T06:29:55;99232.88;;;28.61;79.05
9335;BME280;4706;41.844;26.082;2023-08-06T06:32:21;99240.75;;;28.44;79.98
9335;BME280;4706;41.844;26.082;2023-08-06T06:34:47;99238.66;;;28.31;80.37
9335;BME280;4706;41.844;26.082;2023-08-06T06:37:13;99233.59;;;28.39;80.56
9335;BME280;4706;41.844;26.082;2023-08-06T06:39:38;99234.06;;;28.25;80.86
9335;BME280;4706;41.844;26.082;2023-08-06T06:42:04;99233.06;;;28.06;81.82
9335;BME280;4706;41.844;26.082;2023-08-06T06:44:30;99232.56;;;28.20;81.61
9335;BME280;4706;41.844;26.082;2023-08-06T06:46:55;99217.78;;;28.16;81.06
9335;BME280;4706;41.844;26.082;2023-08-06T06:49:21;99193.72;;;27.86;83.33
9335;BME280;4706;41.844;26.082;2023-08-06T06:51:46;99192.50;;;27.87;83.68
9335;BME280;4706;41.844;26.082;2023-08-06T06:54:12;99209.19;;;28.07;82.58
9335;BME280;4706;41.844;26.082;2023-08-06T06:56:37;99215.06;;;28.13;81.33
9335;BME280;4706;41.844;26.082;2023-08-06T06:59:03;99222.63;;;28.16;81.18
9335;BME280;4706;41.844;26.082;2023-08-06T07:01:28;99225.00;;;28.30;79.95
9335;BME280;4706;41.844;26.082;2023-08-06T07:03:53;99221.97;;;28.37;80.00
9335;BME280;4706;41.844;26.082;2023-08-06T07:06:19;99232.38;;;28.40;80.17
9335;BME280;4706;41.844;26.082;2023-08-06T07:08:45;99244.47;;;28.41;79.91
9335;BME280;4706;41.844;26.082;2023-08-06T07:11:10;99241.59;;;28.53;79.03
9335;BME280;4706;41.844;26.082;2023-08-06T07:13:36;99242.28;;;28.58;79.01
9335;BME280;4706;41.844;26.082;2023-08-06T07:16:02;99243.09;;;28.45;76.91
9335;BME280;4706;41.844;26.082;2023-08-06T07:18:28;99241.41;;;28.48;77.12
9335;BME280;4706;41.844;26.082;2023-08-06T07:20:54;99210.97;;;28.39;77.10
9335;BME280;4706;41.844;26.082;2023-08-06T07:23:21;99245.75;;;28.74;75.55
9335;BME280;4706;41.844;26.082;2023-08-06T07:25:47;99255.50;;;28.95;74.21
9335;BME280;4706;41.844;26.082;2023-08-06T07:28:13;99256.28;;;29.09;72.69
9335;BME280;4706;41.844;26.082;2023-08-06T07:30:40;99256.69;;;29.20;72.62
9335;BME280;4706;41.844;26.082;2023-08-06T07:33:05;99257.53;;;29.29;71.31
9335;BME280;4706;41.844;26.082;2023-08-06T07:35:32;99256.38;;;29.62;70.39
9335;BME280;4706;41.844;26.082;2023-08-06T07:37:57;99264.06;;;29.83;69.81
9335;BME280;4706;41.844;26.082;2023-08-06T07:40:23;99258.00;;;30.03;68.25
9335;BME280;4706;41.844;26.082;2023-08-06T07:42:49;99249.50;;;30.12;67.55
9335;BME280;4706;41.844;26.082;2023-08-06T07:45:14;99247.50;;;30.13;67.77
9335;BME280;4706;41.844;26.082;2023-08-06T07:47:40;99264.22;;;30.20;67.88
9335;BME280;4706;41.844;26.082;2023-08-06T07:50:06;99295.00;;;30.31;66.23
9335;BME280;4706;41.844;26.082;2023-08-06T07:52:32;99326.03;;;30.25;62.87
9335;BME280;4706;41.844;26.082;2023-08-06T07:54:57;99327.25;;;29.71;54.70
9335;BME280;4706;41.844;26.082;2023-08-06T07:57:23;99325.91;;;29.19;55.80
9335;BME280;4706;41.844;26.082;2023-08-06T07:59:49;99330.34;;;28.94;58.30
9335;BME280;4706;41.844;26.082;2023-08-06T08:02:14;99330.34;;;28.94;64.20
9335;BME280;4706;41.844;26.082;2023-08-06T08:04:41;99318.16;;;28.85;67.59
9335;BME280;4706;41.844;26.082;2023-08-06T08:07:06;99304.00;;;28.85;69.87
9335;BME280;4706;41.844;26.082;2023-08-06T08:09:34;99273.22;;;28.87;70.68
9335;BME280;4706;41.844;26.082;2023-08-06T08:12:00;99261.28;;;28.92;69.97
9335;BME280;4706;41.844;26.082;2023-08-06T08:14:26;99268.34;;;28.87;70.66
9335;BME280;4706;41.844;26.082;2023-08-06T08:16:51;99259.66;;;29.16;71.44
9335;BME280;4706;41.844;26.082;2023-08-06T08:19:17;99265.97;;;29.42;70.94
9335;BME280;4706;41.844;26.082;2023-08-06T08:21:42;99268.03;;;29.42;66.73
9335;BME280;4706;41.844;26.082;2023-08-06T08:24:08;99243.78;;;29.41;67.88
9335;BME280;4706;41.844;26.082;2023-08-06T08:26:33;99263.81;;;29.46;65.61
9335;BME280;4706;41.844;26.082;2023-08-06T08:28:59;99279.75;;;29.31;62.71
9335;BME280;4706;41.844;26.082;2023-08-06T08:31:24;99284.00;;;29.14;63.94
9335;BME280;4706;41.844;26.082;2023-08-06T08:33:50;99292.78;;;28.81;62.32
9335;BME280;4706;41.844;26.082;2023-08-06T08:36:15;99309.16;;;28.64;66.81
9335;BME280;4706;41.844;26.082;2023-08-06T08:38:41;99342.75;;;28.62;65.59
9335;BME280;4706;41.844;26.082;2023-08-06T08:41:09;99359.03;;;28.58;66.63
9335;BME280;4706;41.844;26.082;2023-08-06T08:43:35;99383.94;;;28.38;72.94
9335;BME280;4706;41.844;26.082;2023-08-06T08:46:01;99357.91;;;28.17;83.01
9335;BME280;4706;41.844;26.082;2023-08-06T08:48:29;99315.28;;;27.41;90.60
9335;BME280;4706;41.844;26.082;2023-08-06T08:50:55;99279.91;;;27.23;94.92
9335;BME280;4706;41.844;26.082;2023-08-06T08:53:21;99262.22;;;26.90;95.69
9335;BME280;4706;41.844;26.082;2023-08-06T08:55:48;99298.94;;;26.57;92.96
9335;BME280;4706;41.844;26.082;2023-08-06T08:58:14;99288.84;;;26.24;97.01
9335;BME280;4706;41.844;26.082;2023-08-06T09:00:41;99272.41;;;26.02;100.00
9335;BME280;4706;41.844;26.082;2023-08-06T09:03:08;99239.44;;;25.47;100.00
9335;BME280;4706;41.844;26.082;2023-08-06T09:05:33;99243.88;;;25.04;100.00
9335;BME280;4706;41.844;26.082;2023-08-06T09:08:04;99294.66;;;25.21;100.00
9335;BME280;4706;41.844;26.082;2023-08-06T09:10:29;99309.88;;;24.76;100.00
9335;BME280;4706;41.844;26.082;2023-08-06T09:12:56;99317.03;;;24.57;100.00
9335;BME280;4706;41.844;26.082;2023-08-06T09:15:26;99324.50;;;24.67;100.00
9335;BME280;4706;41.844;26.082;2023-08-06T09:17:53;99305.06;;;24.53;100.00
9335;BME280;4706;41.844;26.082;2023-08-06T09:20:19;99305.22;;;24.42;100.00
9335;BME280;4706;41.844;26.082;2023-08-06T09:22:45;99271.38;;;24.50;100.00
9335;BME280;4706;41.844;26.082;2023-08-06T09:25:10;99269.47;;;24.66;100.00
9335;BME280;4706;41.844;26.082;2023-08-06T09:27:39;99262.44;;;25.02;100.00
9335;BME280;4706;41.844;26.082;2023-08-06T09:30:06;99254.16;;;25.14;100.00
9335;BME280;4706;41.844;26.082;2023-08-06T09:32:48;99243.31;;;25.53;100.00
9335;BME280;4706;41.844;26.082;2023-08-06T09:35:19;99252.16;;;25.91;100.00
9335;BME280;4706;41.844;26.082;2023-08-06T09:37:45;99256.22;;;26.06;100.00
9335;BME280;4706;41.844;26.082;2023-08-06T09:40:28;99266.41;;;26.53;97.37
9335;BME280;4706;41.844;26.082;2023-08-06T09:42:54;99263.00;;;26.91;95.73
9335;BME280;4706;41.844;26.082;2023-08-06T09:45:20;99263.66;;;27.27;92.99
9335;BME280;4706;41.844;26.082;2023-08-06T09:47:48;99272.53;;;27.68;90.58
9335;BME280;4706;41.844;26.082;2023-08-06T09:50:18;99289.72;;;28.02;82.78
9335;BME280;4706;41.844;26.082;2023-08-06T09:52:44;99302.03;;;28.34;90.87
9335;BME280;4706;41.844;26.082;2023-08-06T09:55:14;99316.03;;;28.76;87.66
9335;BME280;4706;41.844;26.082;2023-08-06T09:57:40;99337.81;;;29.14;85.11
9335;BME280;4706;41.844;26.082;2023-08-06T10:00:10;99325.63;;;29.61;86.82
9335;BME280;4706;41.844;26.082;2023-08-06T10:02:37;99327.25;;;29.93;79.57
9335;BME280;4706;41.844;26.082;2023-08-06T10:05:05;99330.78;;;30.28;81.47
9335;BME280;4706;41.844;26.082;2023-08-06T10:07:31;99311.66;;;30.69;79.94
9335;BME280;4706;41.844;26.082;2023-08-06T10:09:56;99297.69;;;31.02;78.16
9335;BME280;4706;41.844;26.082;2023-08-06T10:12:23;99302.47;;;31.33;70.79
9335;BME280;4706;41.844;26.082;2023-08-06T10:14:51;99288.06;;;31.64;71.77
9335;BME280;4706;41.844;26.082;2023-08-06T10:17:21;99284.78;;;32.08;71.89
9335;BME280;4706;41.844;26.082;2023-08-06T10:19:48;99288.47;;;32.42;69.53
9335;BME280;4706;41.844;26.082;2023-08-06T10:22:15;99286.38;;;32.75;67.10
9335;BME280;4706;41.844;26.082;2023-08-06T10:27:29;99272.00;;;33.18;66.32
9335;BME280;4706;41.844;26.082;2023-08-06T10:32:58;99259.69;;;33.65;64.06
9335;BME280;4706;41.844;26.082;2023-08-06T10:35:43;99263.44;;;34.01;63.84
9335;BME280;4706;41.844;26.082;2023-08-06T10:38:20;99262.41;;;34.19;61.49
9335;BME280;4706;41.844;26.082;2023-08-06T10:45:55;99266.13;;;34.25;58.63
9335;BME280;4706;41.844;26.082;2023-08-06T10:48:33;99259.91;;;34.26;58.16
9335;BME280;4706;41.844;26.082;2023-08-06T10:51:00;99268.72;;;34.58;59.75
9335;BME280;4706;41.844;26.082;2023-08-06T10:53:26;99255.31;;;34.64;55.27
9335;BME280;4706;41.844;26.082;2023-08-06T10:55:51;99255.44;;;34.55;56.82
9335;BME280;4706;41.844;26.082;2023-08-06T10:58:17;99253.59;;;34.72;58.08
9335;BME280;4706;41.844;26.082;2023-08-06T11:00:42;99252.03;;;34.92;55.15
9335;BME280;4706;41.844;26.082;2023-08-06T11:03:08;99245.19;;;35.04;51.53
9335;BME280;4706;41.844;26.082;2023-08-06T11:05:35;99237.25;;;35.14;52.09
9335;BME280;4706;41.844;26.082;2023-08-06T11:08:01;99243.00;;;35.19;50.87
9335;BME280;4706;41.844;26.082;2023-08-06T11:10:26;99247.72;;;35.22;50.76
9335;BME280;4706;41.844;26.082;2023-08-06T11:12:52;99247.75;;;35.28;48.82
9335;BME280;4706;41.844;26.082;2023-08-06T11:15:20;99250.69;;;35.34;50.38
9335;BME280;4706;41.844;26.082;2023-08-06T11:17:46;99247.94;;;35.45;48.48
9335;BME280;4706;41.844;26.082;2023-08-06T11:20:12;99244.00;;;35.42;49.13
9335;BME280;4706;41.844;26.082;2023-08-06T11:22:37;99243.88;;;35.51;48.87
9335;BME280;4706;41.844;26.082;2023-08-06T11:25:05;99242.00;;;35.74;49.64
9335;BME280;4706;41.844;26.082;2023-08-06T11:27:31;99248.28;;;35.79;45.51
9335;BME280;4706;41.844;26.082;2023-08-06T11:29:57;99230.56;;;35.74;46.25
9335;BME280;4706;41.844;26.082;2023-08-06T11:32:23;99237.09;;;35.81;47.38
9335;BME280;4706;41.844;26.082;2023-08-06T11:34:48;99239.63;;;35.99;46.52
9335;BME280;4706;41.844;26.082;2023-08-06T11:37:14;99234.50;;;36.09;44.81
9335;BME280;4706;41.844;26.082;2023-08-06T11:39:46;99218.09;;;36.09;45.31
9335;BME280;4706;41.844;26.082;2023-08-06T11:42:12;99234.34;;;36.23;44.96
9335;BME280;4706;41.844;26.082;2023-08-06T11:44:38;99241.66;;;36.30;44.25
9335;BME280;4706;41.844;26.082;2023-08-06T11:47:12;99230.84;;;36.08;44.16
9335;BME280;4706;41.844;26.082;2023-08-06T11:49:48;99239.47;;;36.14;43.61
9335;BME280;4706;41.844;26.082;2023-08-06T11:52:24;99243.84;;;36.04;43.28
9335;BME280;4706;41.844;26.082;2023-08-06T11:55:04;99249.34;;;36.07;43.14
9335;BME280;4706;41.844;26.082;2023-08-06T11:57:39;99246.25;;;36.16;43.13
9335;BME280;4706;41.844;26.082;2023-08-06T12:00:10;99251.13;;;36.05;43.67
9335;BME280;4706;41.844;26.082;2023-08-06T12:02:38;99253.00;;;36.13;43.15
9335;BME280;4706;41.844;26.082;2023-08-06T12:05:15;99241.91;;;36.27;43.35
9335;BME280;4706;41.844;26.082;2023-08-06T12:07:45;99232.84;;;36.34;42.42
9335;BME280;4706;41.844;26.082;2023-08-06T12:10:15;99236.25;;;36.38;42.54
9335;BME280;4706;41.844;26.082;2023-08-06T12:12:42;99237.47;;;36.26;40.11
9335;BME280;4706;41.844;26.082;2023-08-06T12:15:08;99236.97;;;36.27;40.97
9335;BME280;4706;41.844;26.082;2023-08-06T12:17:35;99227.34;;;36.30;40.68
9335;BME280;4706;41.844;26.082;2023-08-06T12:20:01;99212.81;;;36.39;42.29
9335;BME280;4706;41.844;26.082;2023-08-06T12:22:26;99224.72;;;36.69;41.77
9335;BME280;4706;41.844;26.082;2023-08-06T12:24:52;99226.06;;;36.80;42.04
9335;BME280;4706;41.844;26.082;2023-08-06T12:27:18;99234.16;;;36.92;44.27
9335;BME280;4706;41.844;26.082;2023-08-06T12:29:45;99227.72;;;37.03;44.46
9335;BME280;4706;41.844;26.082;2023-08-06T12:32:11;99224.31;;;36.99;42.90
9335;BME280;4706;41.844;26.082;2023-08-06T12:34:40;99212.34;;;36.95;44.44
9335;BME280;4706;41.844;26.082;2023-08-06T12:37:07;99205.50;;;36.87;44.13
9335;BME280;4706;41.844;26.082;2023-08-06T12:39:33;99203.69;;;36.89;43.69
9335;BME280;4706;41.844;26.082;2023-08-06T12:42:00;99188.03;;;36.85;43.40
9335;BME280;4706;41.844;26.082;2023-08-06T12:44:26;99198.22;;;36.91;42.69
9335;BME280;4706;41.844;26.082;2023-08-06T12:46:52;99206.00;;;36.80;42.60
9335;BME280;4706;41.844;26.082;2023-08-06T12:49:19;99219.50;;;36.74;42.86
9335;BME280;4706;41.844;26.082;2023-08-06T12:51:47;99221.84;;;36.64;41.72
9335;BME280;4706;41.844;26.082;2023-08-06T12:54:12;99212.91;;;36.51;41.63
9335;BME280;4706;41.844;26.082;2023-08-06T12:56:38;99225.00;;;36.71;40.11
9335;BME280;4706;41.844;26.082;2023-08-06T12:59:03;99222.13;;;36.71;39.31
9335;BME280;4706;41.844;26.082;2023-08-06T13:01:29;99211.94;;;36.70;38.41
9335;BME280;4706;41.844;26.082;2023-08-06T13:03:55;99214.28;;;36.66;38.70
9335;BME280;4706;41.844;26.082;2023-08-06T13:06:20;99205.06;;;36.45;39.69
9335;BME280;4706;41.844;26.082;2023-08-06T13:08:46;99213.88;;;36.42;39.63
9335;BME280;4706;41.844;26.082;2023-08-06T13:11:11;99212.88;;;36.45;40.00
9335;BME280;4706;41.844;26.082;2023-08-06T13:13:37;99212.56;;;36.43;40.65
9335;BME280;4706;41.844;26.082;2023-08-06T13:16:02;99214.66;;;36.42;40.87
9335;BME280;4706;41.844;26.082;2023-08-06T13:18:28;99215.31;;;36.20;41.60
9335;BME280;4706;41.844;26.082;2023-08-06T13:20:54;99208.13;;;35.99;42.30